Time;durP1;ratioP1;P1;durP2;ratioP2;P2;SDS_P1;SDS_P2;PMS_P1;PMS_P2;Temp;Humidity;BMP_temperature;BMP_pressure;BME280_temperature;BME280_humidity;BME280_pressure;Samples;Min_cycle;Max_cycle;Signal;HPM_P1;HPM_P2
2022/10/05 00:00:53;;;;;;;21.48;11.90;;;;;;;10.48;66.05;96113.09;5047078;28;20040;-74
2022/10/05 00:03:21;;;;;;;22.50;12.98;;;;;;;10.59;66.40;96141.31;5050672;28;20487;-75
2022/10/05 00:05:47;;;;;;;20.15;12.38;;;;;;;10.64;66.57;96159.13;5051426;28;20041;-75
2022/10/05 00:08:14;;;;;;;27.27;12.77;;;;;;;10.18;66.32;96088.91;5050050;28;20482;-75
2022/10/05 00:10:40;;;;;;;23.17;12.77;;;;;;;10.42;65.99;96130.00;5049976;28;20029;-75
2022/10/05 00:13:20;;;;;;;26.40;12.25;;;;;;;10.08;67.44;96102.78;5051163;28;20040;-75
2022/10/05 00:15:46;;;;;;;23.15;12.52;;;;;;;10.37;67.36;96151.97;5049548;28;20056;-75
2022/10/05 00:18:17;;;;;;;22.35;12.02;;;;;;;10.37;67.83;96151.16;5049966;28;20029;-75
2022/10/05 00:20:44;;;;;;;25.25;11.75;;;;;;;9.96;67.47;96100.28;5050441;28;20064;-74
2022/10/05 00:23:18;;;;;;;20.40;12.40;;;;;;;10.33;68.27;96150.03;5049247;28;20131;-75
2022/10/05 00:25:44;;;;;;;20.65;10.65;;;;;;;9.84;68.13;96081.03;5051371;28;20041;-75
2022/10/05 00:28:26;;;;;;;22.00;12.05;;;;;;;10.37;67.72;96159.13;5050556;28;20036;-75
2022/10/05 00:30:56;;;;;;;23.15;12.05;;;;;;;9.96;68.14;96102.13;5050025;28;20037;-75
2022/10/05 00:33:22;;;;;;;20.45;11.77;;;;;;;10.14;68.23;96123.03;5050912;28;20093;-75
2022/10/05 00:35:47;;;;;;;20.98;12.90;;;;;;;10.18;68.35;96149.88;5049829;28;20037;-75
2022/10/05 00:38:13;;;;;;;23.80;13.98;;;;;;;10.23;68.50;96157.88;5051519;28;20037;-75
2022/10/05 00:41:17;;;;;;;23.73;12.15;;;;;;;10.26;68.34;96152.88;5051271;28;20045;-74
2022/10/05 00:44:20;;;;;;;24.65;13.05;;;;;;;10.24;67.89;96149.69;5049254;28;20064;-74
2022/10/05 00:46:48;;;;;;;21.83;11.98;;;;;;;9.53;68.27;96042.00;5050842;28;20108;-75
2022/10/05 00:49:43;;;;;;;19.73;12.93;;;;;;;10.19;68.55;96156.78;5050626;28;20044;-74
2022/10/05 00:52:46;;;;;;;32.63;12.70;;;;;;;10.19;68.32;96159.41;5050767;28;20486;-74
2022/10/05 00:56:02;;;;;;;31.45;12.60;;;;;;;10.22;68.46;96157.06;5043850;28;20526;-75
2022/10/05 00:58:46;;;;;;;25.40;13.18;;;;;;;10.22;67.87;96156.28;5028554;28;20041;-75
2022/10/05 01:01:17;;;;;;;30.48;13.10;;;;;;;9.69;67.91;96094.91;5046267;28;20041;-75
2022/10/05 01:04:30;;;;;;;25.38;12.18;;;;;;;10.19;68.14;96173.47;5048974;28;20068;-75
2022/10/05 01:07:14;;;;;;;17.50;10.45;;;;;;;10.05;67.94;96170.38;5027980;28;20100;-75
2022/10/05 01:09:55;;;;;;;16.70;10.98;;;;;;;9.90;68.05;96183.41;5069573;28;20503;-75
2022/10/05 01:12:35;;;;;;;18.40;9.30;;;;;;;9.91;68.77;96182.38;5051634;28;20445;-75
2022/10/05 01:15:10;;;;;;;19.83;9.88;;;;;;;10.01;68.28;96173.72;5048781;28;20037;-75
2022/10/05 01:17:53;;;;;;;17.35;9.77;;;;;;;9.67;69.24;96171.19;5049828;28;20040;-75
2022/10/05 01:20:57;;;;;;;23.50;8.88;;;;;;;9.78;68.90;96169.44;5049024;28;20029;-75
2022/10/05 01:24:04;;;;;;;21.90;9.27;;;;;;;9.76;69.23;96184.00;5027718;28;20045;-75
2022/10/05 01:26:55;;;;;;;15.70;8.15;;;;;;;9.78;68.69;96189.84;5049204;28;20033;-75
2022/10/05 01:29:24;;;;;;;12.82;6.75;;;;;;;9.73;69.05;96192.44;5049028;28;20036;-75
2022/10/05 01:32:18;;;;;;;12.90;7.30;;;;;;;9.57;69.20;96200.16;5050883;28;20033;-75
2022/10/05 01:34:59;;;;;;;13.20;6.85;;;;;;;9.67;69.03;96196.84;5028051;28;20107;-75
2022/10/05 01:37:47;;;;;;;11.88;7.15;;;;;;;9.52;69.43;96208.03;5049872;28;20556;-75
2022/10/05 01:40:30;;;;;;;12.52;7.22;;;;;;;9.48;70.20;96211.38;5053295;28;20499;-75
2022/10/05 01:43:10;;;;;;;15.68;7.93;;;;;;;8.89;69.67;96107.75;5052592;28;20032;-75
2022/10/05 01:46:21;;;;;;;15.65;8.00;;;;;;;9.39;69.99;96178.41;5047007;28;20116;-75
2022/10/05 01:48:59;;;;;;;10.02;7.72;;;;;;;9.60;69.60;96228.81;5048079;28;20041;-75
2022/10/05 01:51:50;;;;;;;14.07;8.23;;;;;;;9.52;70.49;96225.75;5054003;28;20473;-75
2022/10/05 01:54:37;;;;;;;16.75;8.43;;;;;;;9.38;70.22;96235.06;5053859;28;20473;-75
2022/10/05 01:57:31;;;;;;;16.77;7.88;;;;;;;9.43;70.13;96229.84;5053558;28;20032;-75
2022/10/05 02:00:13;;;;;;;31.92;12.50;;;;;;;9.50;69.89;96228.63;5051916;28;20025;-75
2022/10/05 02:02:43;;;;;;;19.15;9.05;;;;;;;9.21;69.23;96172.31;5049250;28;20018;-75
2022/10/05 02:05:16;;;;;;;12.32;8.60;;;;;;;9.48;69.60;96229.91;5053069;28;20590;-75
2022/10/05 02:07:55;;;;;;;14.65;9.38;;;;;;;9.04;69.75;96176.78;5053681;28;20025;-75
2022/10/05 02:11:02;;;;;;;12.57;8.02;;;;;;;9.23;70.61;96238.25;5049827;28;20089;-75
2022/10/05 02:13:40;;;;;;;13.40;8.82;;;;;;;8.81;70.57;96159.22;5007473;28;20033;-75
2022/10/05 02:16:19;;;;;;;14.75;8.20;;;;;;;9.27;70.22;96218.19;5047221;28;20068;-75
2022/10/05 02:18:59;;;;;;;13.52;8.13;;;;;;;9.02;70.38;96175.41;5052306;28;20025;-75
2022/10/05 02:21:26;;;;;;;14.77;7.78;;;;;;;9.39;70.57;96234.00;5053384;28;20029;-75
2022/10/05 02:23:57;;;;;;;11.77;8.23;;;;;;;9.14;70.38;96197.34;5054137;28;20049;-75
2022/10/05 02:26:24;;;;;;;13.60;7.82;;;;;;;9.39;70.16;96242.75;5051303;28;20048;-75
2022/10/05 02:28:57;;;;;;;12.02;8.50;;;;;;;9.39;70.14;96239.28;5052988;28;20036;-75
2022/10/05 02:31:29;;;;;;;10.80;7.82;;;;;;;9.35;70.26;96246.94;5053079;28;20345;-75
2022/10/05 02:34:24;;;;;;;14.90;8.95;;;;;;;9.40;70.54;96239.06;5052342;28;20087;-75
2022/10/05 02:36:57;;;;;;;15.95;8.70;;;;;;;9.09;70.05;96186.66;5052529;28;20033;-75
2022/10/05 02:39:44;;;;;;;12.85;9.13;;;;;;;9.21;69.81;96203.28;5053406;28;20033;-75
2022/10/05 02:42:22;;;;;;;22.13;10.05;;;;;;;9.41;69.81;96234.56;5053617;28;20096;-75
2022/10/05 02:45:25;;;;;;;19.73;8.80;;;;;;;9.37;70.47;96239.56;5052467;28;20040;-75
2022/10/05 02:47:53;;;;;;;15.15;8.77;;;;;;;9.27;70.65;96240.19;5048088;28;20056;-75
2022/10/05 02:50:26;;;;;;;16.67;8.45;;;;;;;9.24;70.54;96243.28;5051540;28;20067;-75
2022/10/05 02:53:00;;;;;;;13.38;8.35;;;;;;;9.27;70.01;96239.38;5050828;28;20534;-75
2022/10/05 02:55:41;;;;;;;17.02;8.52;;;;;;;9.16;70.96;96232.28;5053104;28;20518;-75
2022/10/05 02:58:15;;;;;;;12.40;7.85;;;;;;;8.95;70.40;96193.28;5050768;28;20037;-75
2022/10/05 03:00:46;;;;;;;16.23;9.02;;;;;;;8.92;70.28;96210.47;5050929;28;20414;-75
2022/10/05 03:03:31;;;;;;;18.15;9.00;;;;;;;9.20;70.80;96241.38;5052154;28;20067;-75
2022/10/05 03:06:02;;;;;;;18.55;8.82;;;;;;;9.19;70.60;96251.16;5041052;28;20483;-75
2022/10/05 03:08:45;;;;;;;16.02;9.05;;;;;;;9.18;70.18;96251.38;5051913;28;20098;-75
2022/10/05 03:11:28;;;;;;;17.23;9.60;;;;;;;9.05;70.64;96252.50;5050926;28;20133;-75
2022/10/05 03:14:02;;;;;;;17.65;10.15;;;;;;;9.03;70.76;96245.81;5052592;28;20060;-75
2022/10/05 03:16:46;;;;;;;17.00;10.82;;;;;;;9.12;70.69;96258.44;5050587;28;20072;-75
2022/10/05 03:19:35;;;;;;;19.10;10.13;;;;;;;9.15;70.20;96255.34;5051663;28;20047;-75
2022/10/05 03:22:27;;;;;;;20.45;10.57;;;;;;;9.06;70.21;96240.88;5036540;28;20530;-74
2022/10/05 03:25:04;;;;;;;15.52;9.25;;;;;;;8.57;70.95;96193.91;5051009;28;20032;-74
2022/10/05 03:27:36;;;;;;;12.50;7.55;;;;;;;8.99;71.14;96257.94;5050166;28;20580;-74
2022/10/05 03:30:14;;;;;;;15.70;7.70;;;;;;;8.20;70.75;96146.66;5051634;28;20044;-74
2022/10/05 03:32:52;;;;;;;9.85;6.97;;;;;;;9.06;70.80;96275.28;5051993;28;20041;-75
2022/10/05 03:35:26;;;;;;;8.65;7.00;;;;;;;9.10;70.42;96268.47;5050193;28;20523;-74
2022/10/05 03:38:06;;;;;;;9.90;6.35;;;;;;;8.99;70.44;96277.25;5050878;28;20028;-75
2022/10/05 03:40:58;;;;;;;11.82;6.50;;;;;;;8.61;71.40;96285.78;5051827;28;20394;-74
2022/10/05 03:43:50;;;;;;;10.38;6.60;;;;;;;8.50;71.80;96283.94;5050336;28;20136;-75
2022/10/05 03:46:34;;;;;;;10.60;6.10;;;;;;;8.23;71.98;96259.03;5051000;28;20032;-74
2022/10/05 03:49:22;;;;;;;12.27;6.95;;;;;;;8.54;71.59;96287.75;5050622;28;20040;-74
2022/10/05 03:51:57;;;;;;;14.10;6.32;;;;;;;8.49;71.67;96299.00;5021144;28;20415;-74
2022/10/05 03:54:33;;;;;;;13.73;6.30;;;;;;;8.21;71.61;96269.84;5050784;28;20049;-75
2022/10/05 03:57:12;;;;;;;9.00;6.30;;;;;;;7.56;71.93;96192.56;5048597;28;20036;-74
2022/10/05 04:00:22;;;;;;;12.98;8.10;;;;;;;8.31;71.42;96311.56;5049545;28;20487;-74
2022/10/05 04:03:19;;;;;;;14.20;6.75;;;;;;;8.27;71.95;96313.03;5047063;28;20041;-74
2022/10/05 04:05:50;;;;;;;14.48;7.38;;;;;;;8.24;71.76;96314.28;5047158;28;20025;-74
2022/10/05 04:08:43;;;;;;;22.48;8.07;;;;;;;8.25;71.72;96294.75;5048668;28;20020;-75
2022/10/05 04:11:14;;;;;;;27.65;11.07;;;;;;;8.03;72.06;96277.88;5047089;28;20040;-75
2022/10/05 04:13:50;;;;;;;30.23;10.35;;;;;;;7.69;73.41;96240.69;5050530;28;20105;-75
2022/10/05 04:16:24;;;;;;;26.15;11.73;;;;;;;7.77;72.78;96239.53;5041511;28;20414;-75
2022/10/05 04:19:09;;;;;;;25.33;11.30;;;;;;;8.24;72.82;96303.72;5046438;28;20104;-76
2022/10/05 04:21:50;;;;;;;20.25;12.20;;;;;;;8.24;72.57;96292.38;5040656;28;20098;-76
2022/10/05 04:24:26;;;;;;;17.33;10.82;;;;;;;8.46;72.50;96315.34;5039794;28;20284;-76
2022/10/05 04:26:56;;;;;;;19.33;10.20;;;;;;;8.47;72.22;96316.94;5040868;28;20172;-76
2022/10/05 04:29:32;;;;;;;16.85;10.88;;;;;;;8.46;71.91;96322.47;5030170;28;20050;-76
2022/10/05 04:32:19;;;;;;;16.48;10.80;;;;;;;8.49;71.98;96322.81;5031962;28;20546;-77
2022/10/05 04:35:09;;;;;;;19.38;11.50;;;;;;;8.51;72.03;96318.09;5029869;28;20041;-76
2022/10/05 04:37:53;;;;;;;18.20;10.88;;;;;;;8.52;72.04;96327.63;5033523;28;20120;-76
2022/10/05 04:40:24;;;;;;;19.63;9.85;;;;;;;8.27;71.91;96294.53;5036717;28;20503;-76
2022/10/05 04:42:58;;;;;;;20.35;9.45;;;;;;;8.49;72.03;96332.56;5034788;28;20048;-74
2022/10/05 04:45:51;;;;;;;23.30;10.00;;;;;;;7.85;72.22;96251.59;5040530;28;20044;-74
2022/10/05 04:48:43;;;;;;;19.60;9.98;;;;;;;8.53;71.27;96346.94;5037744;28;20032;-75
2022/10/05 04:51:20;;;;;;;;;;;;;;;8.51;71.64;96349.00;5039631;28;20032;-75
2022/10/05 04:53:55;;;;;;;21.40;10.50;;;;;;;8.55;72.06;96351.97;5042056;28;19932;-76
2022/10/05 04:56:38;;;;;;;30.38;10.38;;;;;;;8.59;71.98;96353.94;5039347;28;20202;-76
2022/10/05 04:59:41;;;;;;;20.00;10.95;;;;;;;8.61;71.50;96356.38;5040260;28;20489;-76
2022/10/05 05:02:25;;;;;;;24.23;11.07;;;;;;;8.63;71.68;96347.16;5036456;28;20029;-76
2022/10/05 05:05:24;;;;;;;22.48;11.38;;;;;;;8.72;71.56;96350.25;5045465;28;20384;-75
2022/10/05 05:08:11;;;;;;;21.02;11.13;;;;;;;8.73;71.14;96350.00;5028248;28;20068;-77
2022/10/05 05:10:39;;;;;;;14.68;10.05;;;;;;;8.74;71.28;96348.97;5028957;28;20052;-77
2022/10/05 05:13:25;;;;;;;26.90;11.60;;;;;;;8.78;70.76;96351.94;5033300;28;20043;-79
2022/10/05 05:15:56;;;;;;;21.98;11.50;;;;;;;8.81;71.31;96354.94;5042121;28;20043;-78
2022/10/05 05:18:34;;;;;;;22.77;11.38;;;;;;;8.60;70.89;96315.91;5042315;28;20048;-78
2022/10/05 05:21:09;;;;;;;22.45;11.60;;;;;;;8.84;71.29;96354.50;5037034;28;20044;-77
2022/10/05 05:23:43;;;;;;;29.15;12.70;;;;;;;8.57;71.05;96291.75;5042479;28;20727;-78
2022/10/05 05:26:30;;;;;;;30.95;11.85;;;;;;;9.05;70.57;96353.03;5038840;28;20037;-77
2022/10/05 05:29:34;;;;;;;23.10;12.52;;;;;;;9.05;70.84;96354.88;5036472;28;20663;-77
2022/10/05 05:32:11;;;;;;;32.08;12.18;;;;;;;8.96;70.60;96330.63;5033669;28;20039;-78
2022/10/05 05:34:58;;;;;;;31.65;13.23;;;;;;;9.13;70.84;96354.53;5042139;28;20033;-77
2022/10/05 05:37:41;;;;;;;23.58;12.10;;;;;;;9.15;70.64;96352.44;5038937;28;21065;-78
2022/10/05 05:40:22;;;;;;;20.90;11.80;;;;;;;9.21;70.63;96359.44;5038576;28;20888;-77
2022/10/05 05:42:57;;;;;;;24.38;12.88;;;;;;;9.25;70.24;96360.56;5040299;28;20044;-78
2022/10/05 05:45:29;;;;;;;29.05;13.30;;;;;;;9.31;70.12;96375.50;5032394;28;20068;-78
2022/10/05 05:47:57;;;;;;;37.72;13.35;;;;;;;9.29;70.60;96375.75;5030715;28;20135;-80
2022/10/05 05:50:48;;;;;;;40.92;13.85;;;;;;;9.38;70.32;96370.09;5030286;28;20049;-78
2022/10/05 05:53:32;;;;;;;33.63;11.95;;;;;;;9.40;70.55;96371.44;5032672;28;20072;-79
2022/10/05 05:56:05;;;;;;;21.52;11.80;;;;;;;9.43;70.06;96378.91;5035689;28;20037;-77
2022/10/05 05:58:39;;;;;;;26.77;12.65;;;;;;;9.23;69.87;96355.50;5037938;28;20517;-77
2022/10/05 06:01:21;;;;;;;30.13;11.65;;;;;;;9.42;69.97;96387.09;5037092;28;20033;-78
2022/10/05 06:03:58;;;;;;;21.02;11.13;;;;;;;9.13;70.40;96357.97;5039880;28;20563;-77
2022/10/05 06:06:30;;;;;;;25.92;10.75;;;;;;;9.16;69.95;96346.09;5037277;28;20080;-78
2022/10/05 06:09:03;;;;;;;25.63;10.82;;;;;;;9.20;70.39;96349.88;5039829;28;20033;-82
2022/10/05 06:11:46;;;;;;;34.10;12.95;;;;;;;8.92;69.99;96303.06;5040120;28;20523;-79
2022/10/05 06:14:18;;;;;;;41.47;13.10;;;;;;;9.52;69.80;96395.25;5033118;28;20496;-78
2022/10/05 06:16:49;;;;;;;28.30;12.15;;;;;;;9.55;69.24;96394.75;5036120;28;20790;-78
2022/10/05 06:19:19;;;;;;;26.67;10.98;;;;;;;9.55;69.55;96398.19;5064671;28;20474;-77
2022/10/05 06:22:12;;;;;;;21.85;11.73;;;;;;;9.54;69.61;96403.72;5037908;28;20029;-78
2022/10/05 06:24:43;;;;;;;27.83;10.38;;;;;;;9.00;70.05;96317.75;5033399;28;20040;-77
2022/10/05 06:27:34;;;;;;;31.80;11.45;;;;;;;9.54;69.81;96390.50;5036072;28;20245;-78
2022/10/05 06:30:14;;;;;;;23.60;10.23;;;;;;;9.26;69.74;96357.69;5034187;28;20057;-78
2022/10/05 06:32:46;;;;;;;23.13;10.32;;;;;;;9.66;69.60;96418.53;5032464;28;20241;-77
2022/10/05 06:35:41;;;;;;;18.67;8.88;;;;;;;9.70;69.98;96426.81;5040441;28;20112;-78
2022/10/05 06:38:18;;;;;;;21.77;9.63;;;;;;;9.82;69.57;96430.22;5011277;28;20050;-78
2022/10/05 06:40:53;;;;;;;22.60;9.55;;;;;;;9.84;69.43;96440.59;5032412;28;20551;-77
2022/10/05 06:43:24;;;;;;;17.65;9.73;;;;;;;9.77;68.99;96434.59;5037128;28;20040;-76
2022/10/05 06:46:08;;;;;;;23.67;9.70;;;;;;;9.76;69.44;96417.13;5032347;28;20086;-77
2022/10/05 06:48:43;;;;;;;15.23;9.57;;;;;;;9.92;68.84;96435.69;5037235;28;20355;-78
2022/10/05 06:51:23;;;;;;;23.92;9.43;;;;;;;9.51;68.82;96390.97;5037562;28;20033;-77
2022/10/05 06:53:51;;;;;;;18.67;10.20;;;;;;;9.96;68.80;96454.56;5032879;28;20057;-78
2022/10/05 06:56:31;;;;;;;21.20;10.88;;;;;;;9.54;69.77;96398.44;5038837;28;20119;-77
2022/10/05 06:59:18;;;;;;;24.38;11.60;;;;;;;9.90;69.59;96448.38;5036870;28;20057;-77
2022/10/05 07:01:58;;;;;;;29.58;11.77;;;;;;;9.66;69.76;96425.69;5038786;28;20075;-78
2022/10/05 07:04:35;;;;;;;21.42;10.68;;;;;;;9.47;69.32;96376.59;5042823;28;20098;-77
2022/10/05 07:07:13;;;;;;;17.20;11.40;;;;;;;10.06;68.58;96447.63;5033679;28;20064;-76
2022/10/05 07:10:06;;;;;;;20.10;10.80;;;;;;;10.10;68.81;96442.63;5033873;28;20118;-80
2022/10/05 07:12:44;;;;;;;21.70;10.10;;;;;;;10.16;68.76;96441.66;5034150;28;20423;-77
2022/10/05 07:15:29;;;;;;;22.77;11.23;;;;;;;10.23;68.85;96428.28;5036308;28;20032;-78
2022/10/05 07:18:32;;;;;;;30.52;11.73;;;;;;;10.22;69.53;96440.72;5035086;28;20036;-81
2022/10/05 07:21:03;;;;;;;19.48;10.77;;;;;;;10.18;69.54;96436.97;5037839;28;20403;-79
2022/10/05 07:23:38;;;;;;;30.77;12.93;;;;;;;10.23;69.35;96434.38;5029544;28;20269;-79
2022/10/05 07:26:37;;;;;;;32.10;12.45;;;;;;;9.91;70.14;96410.25;5030889;28;20063;-78
2022/10/05 07:29:05;;;;;;;20.30;11.85;;;;;;;10.03;70.95;96437.47;5035918;28;20037;-78
2022/10/05 07:31:45;;;;;;;22.70;12.73;;;;;;;9.85;70.82;96403.22;5033473;28;20419;-79
2022/10/05 07:34:35;;;;;;;29.83;14.15;;;;;;;9.73;70.22;96336.28;5036613;28;20321;-78
2022/10/05 07:40:18;;;;;;;31.73;14.25;;;;;;;9.94;70.15;96371.84;5037237;28;20104;-78
2022/10/05 07:43:02;;;;;;;22.45;13.82;;;;;;;10.30;70.05;96432.38;5035478;28;20036;-78
2022/10/05 07:45:51;;;;;;;35.47;15.38;;;;;;;10.42;69.96;96434.97;5037018;28;20112;-79
2022/10/05 07:48:25;;;;;;;34.28;15.95;;;;;;;9.94;70.32;96366.56;5033467;28;20060;-78
2022/10/05 07:50:50;;;;;;;30.85;16.15;;;;;;;10.49;70.12;96434.81;5036547;28;20033;-78
2022/10/05 07:53:27;;;;;;;29.52;15.02;;;;;;;10.53;70.67;96436.72;5036341;28;20139;-78
2022/10/05 07:55:59;;;;;;;30.92;16.70;;;;;;;9.95;70.49;96347.78;5038862;28;20053;-78
2022/10/05 07:58:35;;;;;;;38.78;17.70;;;;;;;9.87;70.54;96329.63;5034579;28;20044;-80
2022/10/05 08:01:22;;;;;;;28.52;14.63;;;;;;;10.57;70.76;96440.50;5036781;28;20127;-79
2022/10/05 08:04:09;;;;;;;34.78;15.48;;;;;;;10.64;71.23;96438.50;5030810;28;20033;-79
2022/10/05 08:06:43;;;;;;;32.30;16.10;;;;;;;10.69;70.71;96445.72;5033330;28;20044;-79
2022/10/05 08:09:30;;;;;;;34.47;15.73;;;;;;;10.86;70.80;96445.69;5035163;28;20033;-79
2022/10/05 08:12:15;;;;;;;40.70;16.52;;;;;;;10.86;71.00;96451.00;5041835;28;20064;-78
2022/10/05 08:15:08;;;;;;;38.38;14.52;;;;;;;10.42;70.15;96353.56;5042061;28;20044;-78
2022/10/05 08:17:43;;;;;;;31.38;14.55;;;;;;;10.97;69.97;96450.91;5039320;28;20037;-77
2022/10/05 08:20:32;;;;;;;23.00;14.63;;;;;;;10.71;69.84;96388.72;5041962;28;20120;-79
2022/10/05 08:23:12;;;;;;;26.45;13.35;;;;;;;10.80;69.58;96395.22;5043652;28;20033;-78
2022/10/05 08:26:08;;;;;;;28.65;12.57;;;;;;;11.15;69.47;96449.81;5036701;28;20680;-77
2022/10/05 08:29:15;;;;;;;18.05;10.57;;;;;;;11.25;68.50;96454.44;5040998;28;20296;-77
2022/10/05 08:31:45;;;;;;;19.90;9.63;;;;;;;11.28;67.86;96459.28;5037619;28;20577;-79
2022/10/05 08:34:33;;;;;;;18.77;9.85;;;;;;;10.98;67.17;96401.28;5035231;28;20261;-81
2022/10/05 08:37:23;;;;;;;18.30;8.55;;;;;;;11.43;66.78;96452.31;5033639;28;20722;-79
2022/10/05 08:40:13;;;;;;;15.40;8.07;;;;;;;11.34;66.91;96416.59;5032768;28;20086;-79
2022/10/05 08:42:54;;;;;;;14.15;7.43;;;;;;;11.58;66.04;96451.69;5043011;28;20045;-77
2022/10/05 08:45:42;;;;;;;8.60;4.90;;;;;;;11.59;62.58;96450.63;5033863;28;20465;-79
2022/10/05 08:48:40;;;;;;;9.13;5.32;;;;;;;11.67;61.86;96455.50;5043047;28;20044;-77
2022/10/05 08:51:17;;;;;;;8.30;4.38;;;;;;;11.78;59.53;96441.28;5040546;28;20046;-78
2022/10/05 08:54:01;;;;;;;6.18;4.13;;;;;;;11.82;60.44;96434.44;5042748;28;20045;-78
2022/10/05 08:56:40;;;;;;;11.90;4.10;;;;;;;11.22;60.93;96322.97;5050271;28;20080;-78
2022/10/05 08:59:28;;;;;;;12.57;4.30;;;;;;;12.06;60.64;96434.91;5039936;28;20083;-78
2022/10/05 09:02:17;;;;;;;8.52;4.82;;;;;;;12.04;59.84;96441.56;5047085;28;20029;-78
2022/10/05 09:04:52;;;;;;;13.95;5.07;;;;;;;11.92;59.89;96417.78;5042839;28;20037;-80
2022/10/05 09:07:56;;;;;;;7.28;3.47;;;;;;;11.79;58.81;96375.66;5035712;28;20044;-78
2022/10/05 09:10:34;;;;;;;7.35;3.90;;;;;;;12.20;58.81;96446.78;5041278;28;20209;-80
2022/10/05 09:13:16;;;;;;;8.48;3.83;;;;;;;12.35;58.86;96438.91;5033646;28;20117;-79
2022/10/05 09:16:20;;;;;;;7.45;3.05;;;;;;;12.47;57.39;96432.59;5039652;28;20130;-81
2022/10/05 09:19:00;;;;;;;6.75;3.35;;;;;;;12.45;57.28;96421.41;5037346;28;20131;-81
2022/10/05 09:21:35;;;;;;;6.47;3.60;;;;;;;12.62;56.81;96444.16;5039817;28;20067;-82
2022/10/05 09:24:26;;;;;;;6.57;2.92;;;;;;;12.57;55.37;96443.34;5026705;28;20120;-78
2022/10/05 09:27:11;;;;;;;9.20;3.15;;;;;;;12.50;55.17;96448.88;5039426;28;20032;-81
2022/10/05 09:30:05;;;;;;;4.82;2.70;;;;;;;12.61;56.25;96439.09;5031997;28;20124;-81
2022/10/05 09:32:50;;;;;;;7.13;3.80;;;;;;;12.72;56.06;96438.94;5028172;28;20414;-83
2022/10/05 09:35:47;;;;;;;7.95;3.22;;;;;;;12.76;55.03;96434.69;5033117;28;20402;-80
2022/10/05 09:38:28;;;;;;;12.20;3.30;;;;;;;12.83;56.94;96431.78;5034237;28;20045;-80
2022/10/05 09:41:27;;;;;;;9.10;3.10;;;;;;;12.85;54.91;96442.19;5037940;28;20033;-77
2022/10/05 09:44:21;;;;;;;5.28;2.85;;;;;;;12.85;53.89;96437.66;5035273;28;20056;-77
2022/10/05 09:47:15;;;;;;;6.80;2.75;;;;;;;12.90;54.14;96450.19;5035818;28;20037;-77
2022/10/05 09:50:02;;;;;;;8.65;3.33;;;;;;;13.73;53.13;96443.97;5026354;28;20052;-77
2022/10/05 09:52:42;;;;;;;6.88;3.03;;;;;;;14.83;49.88;96444.34;5029060;28;20056;-77
2022/10/05 09:55:19;;;;;;;4.13;2.25;;;;;;;16.65;45.67;96420.50;5029365;28;20135;-77
2022/10/05 09:57:54;;;;;;;7.80;2.75;;;;;;;17.88;42.43;96386.66;5035469;28;20041;-77
2022/10/05 10:00:27;;;;;;;5.38;2.17;;;;;;;19.04;39.99;96357.91;5041635;28;20426;-78
2022/10/05 10:02:58;;;;;;;3.13;1.95;;;;;;;20.04;37.44;96331.84;5034065;28;20114;-78
2022/10/05 10:05:28;;;;;;;;;;;;;;;21.73;34.37;96424.28;5042581;28;20032;-78
2022/10/05 10:08:04;;;;;;;5.22;2.13;;;;;;;22.78;33.54;96434.84;5033762;28;19916;-78
2022/10/05 10:11:06;;;;;;;3.95;2.13;;;;;;;23.61;32.10;96422.50;5035342;28;20094;-78
2022/10/05 10:13:52;;;;;;;8.57;2.03;;;;;;;23.96;30.13;96406.03;5039413;28;20119;-78
2022/10/05 10:16:59;;;;;;;6.93;2.05;;;;;;;23.88;29.58;96442.91;5036337;28;20542;-80
2022/10/05 10:19:55;;;;;;;5.80;2.28;;;;;;;23.38;30.24;96411.13;5029296;28;20711;-78
2022/10/05 10:22:52;;;;;;;4.75;2.00;;;;;;;23.99;29.62;96438.72;5020669;28;20035;-79
2022/10/05 10:25:36;;;;;;;3.38;1.38;;;;;;;24.51;28.67;96433.72;5036877;28;20447;-77
2022/10/05 10:28:28;;;;;;;4.07;2.03;;;;;;;24.91;29.15;96425.88;5028938;28;20036;-77
2022/10/05 10:30:53;;;;;;;;;;;;;;;25.22;28.63;96430.03;5008544;28;20049;-76
2022/10/05 10:33:27;;;;;;;5.28;1.67;;;;;;;24.80;27.57;96404.88;5025667;28;20007;-76
2022/10/05 10:36:01;;;;;;;3.85;1.75;;;;;;;24.78;28.20;96418.00;5033444;28;20036;-76
2022/10/05 10:39:02;;;;;;;4.47;2.22;;;;;;;24.71;28.04;96420.47;5034983;28;20064;-77
2022/10/05 10:41:50;;;;;;;5.68;1.95;;;;;;;24.36;28.09;96412.63;5036814;28;20063;-76
2022/10/05 10:44:40;;;;;;;5.50;1.90;;;;;;;23.81;28.93;96332.38;5039607;28;20040;-78
2022/10/05 10:47:12;;;;;;;4.50;1.73;;;;;;;24.47;29.05;96404.91;5036660;28;20083;-77
2022/10/05 10:49:49;;;;;;;3.47;1.60;;;;;;;24.58;29.25;96397.94;5035024;28;20036;-76
2022/10/05 10:52:33;;;;;;;14.25;2.15;;;;;;;24.61;28.95;96387.22;5062456;28;20546;-76
2022/10/05 10:55:25;;;;;;;6.18;1.67;;;;;;;23.96;28.22;96392.50;5040207;28;20128;-78
2022/10/05 10:58:09;;;;;;;7.32;1.73;;;;;;;23.64;28.52;96394.78;5039293;28;20281;-76
2022/10/05 11:00:37;;;;;;;1.65;1.52;;;;;;;23.75;27.41;96398.69;5035342;28;20039;-77
2022/10/05 11:03:26;;;;;;;3.92;1.75;;;;;;;23.89;28.11;96382.19;5040968;28;20777;-78
2022/10/05 11:06:20;;;;;;;6.28;1.85;;;;;;;23.33;28.56;96273.28;5036946;28;20035;-80
2022/10/05 11:09:00;;;;;;;7.43;2.20;;;;;;;24.14;28.27;96375.78;5036168;28;20362;-81
2022/10/05 11:11:58;;;;;;;3.73;1.70;;;;;;;24.31;28.40;96363.25;5038103;28;20037;-80
2022/10/05 11:14:32;;;;;;;4.45;1.75;;;;;;;24.14;27.81;96358.72;5029512;28;20041;-79
2022/10/05 11:17:38;;;;;;;5.20;1.67;;;;;;;24.19;28.17;96312.44;5021158;28;20064;-79
2022/10/05 11:20:19;;;;;;;4.38;1.88;;;;;;;23.97;27.52;96359.66;5033761;28;20396;-79
2022/10/05 11:23:02;;;;;;;3.40;1.70;;;;;;;23.74;27.92;96355.69;5037538;28;20041;-78
2022/10/05 11:25:53;;;;;;;4.97;1.80;;;;;;;23.67;28.00;96326.41;5030712;28;20778;-78
2022/10/05 11:28:34;;;;;;;6.63;1.95;;;;;;;23.76;26.85;96346.09;5026051;28;20095;-78
2022/10/05 11:31:37;;;;;;;4.45;1.60;;;;;;;23.98;26.81;96357.75;5032619;28;20039;-78
2022/10/05 11:34:12;;;;;;;5.18;1.30;;;;;;;23.86;26.75;96350.34;5033044;28;20033;-77
2022/10/05 11:37:02;;;;;;;2.45;1.33;;;;;;;24.32;27.00;96326.88;5033390;28;20620;-78
2022/10/05 11:39:43;;;;;;;3.80;1.40;;;;;;;24.70;26.51;96334.81;5037140;28;20037;-77
2022/10/05 11:42:11;;;;;;;;;;;;;;;24.94;26.40;96341.09;5034656;28;20617;-78
2022/10/05 11:44:58;;;;;;;4.47;1.90;;;;;;;24.66;25.44;96337.38;5035938;28;19921;-79
2022/10/05 11:47:30;;;;;;;7.25;1.50;;;;;;;24.14;26.28;96289.06;5036436;28;20469;-78
2022/10/05 11:50:04;;;;;;;3.03;1.55;;;;;;;23.98;26.18;96336.06;5039912;28;20748;-79
2022/10/05 11:52:58;;;;;;;2.55;1.20;;;;;;;23.55;26.07;96293.06;5034392;28;20057;-78
2022/10/05 11:55:32;;;;;;;6.20;1.60;;;;;;;24.20;26.75;96327.63;5034377;28;20032;-79
2022/10/05 11:58:06;;;;;;;6.75;1.70;;;;;;;24.52;26.67;96312.47;5029571;28;20037;-78
2022/10/05 12:00:48;;;;;;;3.42;1.52;;;;;;;24.21;25.96;96299.41;5030368;28;20060;-78
2022/10/05 12:03:56;;;;;;;4.05;1.27;;;;;;;23.95;25.24;96315.06;5026136;28;20047;-79
2022/10/05 12:06:55;;;;;;;4.63;1.42;;;;;;;23.66;24.70;96221.91;5028784;28;20503;-79
2022/10/05 12:09:24;;;;;;;7.22;1.75;;;;;;;24.07;25.67;96317.81;5031348;28;20036;-78
2022/10/05 12:12:19;;;;;;;3.30;1.60;;;;;;;23.84;25.44;96315.47;5032260;28;20033;-80
2022/10/05 12:15:01;;;;;;;3.35;1.52;;;;;;;22.71;26.65;96246.81;5026265;28;20025;-79
2022/10/05 12:17:37;;;;;;;5.93;2.03;;;;;;;22.73;26.67;96318.72;5065726;28;20030;-76
2022/10/05 12:20:15;;;;;;;9.02;1.90;;;;;;;23.20;26.97;96322.19;5035711;28;20033;-80
2022/10/05 12:22:51;;;;;;;4.05;1.30;;;;;;;23.38;26.21;96275.78;5032030;28;20029;-79
2022/10/05 12:25:47;;;;;;;2.63;1.70;;;;;;;24.09;25.83;96300.13;5034268;28;20075;-79
2022/10/05 12:28:19;;;;;;;2.70;1.70;;;;;;;24.08;26.48;96298.53;5033224;28;20048;-77
2022/10/05 12:31:10;;;;;;;4.30;1.30;;;;;;;24.58;26.29;96320.06;5034340;28;20033;-80
2022/10/05 12:34:26;;;;;;;6.50;1.55;;;;;;;24.45;25.48;96312.25;5033453;28;20036;-79
2022/10/05 12:36:55;;;;;;;2.40;1.30;;;;;;;24.41;24.92;96317.53;5005616;28;20033;-77
2022/10/05 12:39:23;;;;;;;5.65;1.83;;;;;;;24.17;25.56;96318.22;5033333;28;20523;-78
2022/10/05 12:42:08;;;;;;;3.60;1.52;;;;;;;24.39;25.09;96324.44;5030958;28;20032;-80